Terminal Aerodrome Forecast
Issued by NWS Cleveland, OH

Home | Current Version | Previous Version | Text Only | Print | Product List | Glossary Off
Versions: 1 2 3 4 5 6 7 8 9 10 11 12 13 14 15 16 17

000
FTUS41 KCLE 181000 AAB
TAFCAK
TAF AMD
KCAK 181003Z 1810/1906 00000KT 3SM BR SCT060
      TEMPO 1810/1812 1SM BR
     FM181400 36007KT P6SM SCT050=

USA.gov is the U.S. government's official web portal to all federal, state and local government web resources and services.